Sint Anthonis, Netherlands
Current Conditions -  °F | °C
As of 6:25 AM on Thursday 27 Nov 2014 (Local Time) from EHVK Reporting Station
Haze Haze  
Wind Chill: 41°   Ceiling: 1200
Heat Index: 45°   Visibility: 5mi
Dew Point: 41°   Wind: 7mph
Humidity: 87%   Direction: 120°ESE
Pressure: 29.77"   Gusts: NA
Location:  51.63°N, 5.88°E
Report Text: EHVK 270525Z AUTO 12006KT 8000 BR OVC012 07/05 Q1008 GRN
Loading
Personal Weather Stations






























Interactive Weather Map New forecast layout! Learn more

10-Day Weather Forecast

Advertisements
Track Severe Weather on mobile